sensor_id;sensor_type;location;lat;lon;timestamp;temperature;humidity
28969;DHT22;16076;51.194;6.642;2022-10-28T00:01:07;18.20;99.90
28969;DHT22;16076;51.194;6.642;2022-10-28T00:03:37;18.20;99.90
28969;DHT22;16076;51.194;6.642;2022-10-28T00:08:49;18.20;99.90
28969;DHT22;16076;51.194;6.642;2022-10-28T00:11:16;18.20;99.90
28969;DHT22;16076;51.194;6.642;2022-10-28T00:13:43;18.20;99.90
28969;DHT22;16076;51.194;6.642;2022-10-28T00:16:17;18.10;99.90
28969;DHT22;16076;51.194;6.642;2022-10-28T00:18:43;18.00;99.90
28969;DHT22;16076;51.194;6.642;2022-10-28T00:21:15;18.00;99.90
28969;DHT22;16076;51.194;6.642;2022-10-28T00:23:41;17.90;99.90
28969;DHT22;16076;51.194;6.642;2022-10-28T00:26:12;17.90;99.90
28969;DHT22;16076;51.194;6.642;2022-10-28T00:28:49;17.90;99.90
28969;DHT22;16076;51.194;6.642;2022-10-28T00:31:17;17.90;99.90
28969;DHT22;16076;51.194;6.642;2022-10-28T00:33:43;17.90;99.90
28969;DHT22;16076;51.194;6.642;2022-10-28T00:38:40;18.00;99.90
28969;DHT22;16076;51.194;6.642;2022-10-28T00:41:06;18.00;99.90
28969;DHT22;16076;51.194;6.642;2022-10-28T00:43:37;18.00;99.90
28969;DHT22;16076;51.194;6.642;2022-10-28T00:46:06;18.10;99.90
28969;DHT22;16076;51.194;6.642;2022-10-28T00:48:36;18.10;99.90
28969;DHT22;16076;51.194;6.642;2022-10-28T00:51:06;18.10;99.90
28969;DHT22;16076;51.194;6.642;2022-10-28T00:53:33;18.10;99.90
28969;DHT22;16076;51.194;6.642;2022-10-28T00:56:01;18.10;99.90
28969;DHT22;16076;51.194;6.642;2022-10-28T00:58:27;18.10;99.90
28969;DHT22;16076;51.194;6.642;2022-10-28T01:00:53;18.00;99.90
28969;DHT22;16076;51.194;6.642;2022-10-28T01:03:20;18.20;99.90
28969;DHT22;16076;51.194;6.642;2022-10-28T01:05:47;18.10;99.90
28969;DHT22;16076;51.194;6.642;2022-10-28T01:08:13;18.10;99.90
28969;DHT22;16076;51.194;6.642;2022-10-28T01:13:42;18.20;99.90
28969;DHT22;16076;51.194;6.642;2022-10-28T01:22:12;18.30;99.90
28969;DHT22;16076;51.194;6.642;2022-10-28T01:31:14;18.30;99.90
28969;DHT22;16076;51.194;6.642;2022-10-28T01:33:27;18.40;99.90
28969;DHT22;16076;51.194;6.642;2022-10-28T01:36:04;18.40;99.90
28969;DHT22;16076;51.194;6.642;2022-10-28T01:44:36;18.40;99.90
28969;DHT22;16076;51.194;6.642;2022-10-28T01:47:09;18.20;99.90
28969;DHT22;16076;51.194;6.642;2022-10-28T01:49:45;18.10;99.90
28969;DHT22;16076;51.194;6.642;2022-10-28T01:52:13;18.00;99.90
28969;DHT22;16076;51.194;6.642;2022-10-28T01:54:44;17.90;99.90
28969;DHT22;16076;51.194;6.642;2022-10-28T01:57:12;17.80;99.90
28969;DHT22;16076;51.194;6.642;2022-10-28T01:59:42;17.80;99.90
28969;DHT22;16076;51.194;6.642;2022-10-28T02:02:14;17.80;99.90
28969;DHT22;16076;51.194;6.642;2022-10-28T02:04:40;17.60;99.90
28969;DHT22;16076;51.194;6.642;2022-10-28T02:07:05;17.60;99.90
28969;DHT22;16076;51.194;6.642;2022-10-28T02:14:50;17.40;99.90
28969;DHT22;16076;51.194;6.642;2022-10-28T02:28:56;17.20;99.90
28969;DHT22;16076;51.194;6.642;2022-10-28T02:31:28;17.20;99.90
28969;DHT22;16076;51.194;6.642;2022-10-28T02:34:00;17.30;99.90
28969;DHT22;16076;51.194;6.642;2022-10-28T02:36:29;17.20;99.90
28969;DHT22;16076;51.194;6.642;2022-10-28T02:38:57;17.20;99.90
28969;DHT22;16076;51.194;6.642;2022-10-28T02:41:28;17.10;99.90
28969;DHT22;16076;51.194;6.642;2022-10-28T02:44:01;17.10;99.90
28969;DHT22;16076;51.194;6.642;2022-10-28T02:46:30;17.10;99.90
28969;DHT22;16076;51.194;6.642;2022-10-28T02:49:01;17.10;99.90
28969;DHT22;16076;51.194;6.642;2022-10-28T02:51:50;17.20;99.90
28969;DHT22;16076;51.194;6.642;2022-10-28T02:54:20;17.20;99.90
28969;DHT22;16076;51.194;6.642;2022-10-28T02:57:03;17.10;99.90
28969;DHT22;16076;51.194;6.642;2022-10-28T02:59:30;17.10;99.90
28969;DHT22;16076;51.194;6.642;2022-10-28T03:01:56;17.10;99.90
28969;DHT22;16076;51.194;6.642;2022-10-28T03:04:21;17.10;99.90
28969;DHT22;16076;51.194;6.642;2022-10-28T03:06:47;17.10;99.90
28969;DHT22;16076;51.194;6.642;2022-10-28T03:09:12;17.00;99.90
28969;DHT22;16076;51.194;6.642;2022-10-28T03:11:38;17.00;99.90
28969;DHT22;16076;51.194;6.642;2022-10-28T03:14:03;17.00;99.90
28969;DHT22;16076;51.194;6.642;2022-10-28T03:16:29;17.00;99.90
28969;DHT22;16076;51.194;6.642;2022-10-28T03:18:55;17.00;99.90
28969;DHT22;16076;51.194;6.642;2022-10-28T03:21:21;17.00;99.90
28969;DHT22;16076;51.194;6.642;2022-10-28T03:23:46;17.00;99.90
28969;DHT22;16076;51.194;6.642;2022-10-28T03:26:12;17.00;99.90
28969;DHT22;16076;51.194;6.642;2022-10-28T03:28:40;17.00;99.90
28969;DHT22;16076;51.194;6.642;2022-10-28T03:31:05;16.80;99.90
28969;DHT22;16076;51.194;6.642;2022-10-28T03:33:33;16.80;99.90
28969;DHT22;16076;51.194;6.642;2022-10-28T03:35:59;16.90;99.90
28969;DHT22;16076;51.194;6.642;2022-10-28T03:38:27;16.90;99.90
28969;DHT22;16076;51.194;6.642;2022-10-28T03:40:52;16.90;99.90
28969;DHT22;16076;51.194;6.642;2022-10-28T03:43:18;16.80;99.90
28969;DHT22;16076;51.194;6.642;2022-10-28T03:45:43;16.90;99.90
28969;DHT22;16076;51.194;6.642;2022-10-28T03:48:09;16.80;99.90
28969;DHT22;16076;51.194;6.642;2022-10-28T03:50:37;16.80;99.90
28969;DHT22;16076;51.194;6.642;2022-10-28T03:53:02;16.70;99.90
28969;DHT22;16076;51.194;6.642;2022-10-28T03:55:28;16.70;99.90
28969;DHT22;16076;51.194;6.642;2022-10-28T03:57:53;16.70;99.90
28969;DHT22;16076;51.194;6.642;2022-10-28T04:00:19;16.70;99.90
28969;DHT22;16076;51.194;6.642;2022-10-28T04:02:49;16.70;99.90
28969;DHT22;16076;51.194;6.642;2022-10-28T04:05:19;16.90;99.90
28969;DHT22;16076;51.194;6.642;2022-10-28T04:07:47;16.80;99.90
28969;DHT22;16076;51.194;6.642;2022-10-28T04:10:13;16.80;99.90
28969;DHT22;16076;51.194;6.642;2022-10-28T04:12:39;16.80;99.90
28969;DHT22;16076;51.194;6.642;2022-10-28T04:15:05;16.70;99.90
28969;DHT22;16076;51.194;6.642;2022-10-28T04:17:34;16.70;99.90
28969;DHT22;16076;51.194;6.642;2022-10-28T04:20:00;16.70;99.90
28969;DHT22;16076;51.194;6.642;2022-10-28T04:22:28;16.80;99.90
28969;DHT22;16076;51.194;6.642;2022-10-28T04:24:54;16.80;99.90
28969;DHT22;16076;51.194;6.642;2022-10-28T04:27:22;16.80;99.90
28969;DHT22;16076;51.194;6.642;2022-10-28T04:29:47;16.80;99.90
28969;DHT22;16076;51.194;6.642;2022-10-28T04:32:13;16.90;99.90
28969;DHT22;16076;51.194;6.642;2022-10-28T04:34:38;16.80;99.90
28969;DHT22;16076;51.194;6.642;2022-10-28T04:37:06;16.80;99.90
28969;DHT22;16076;51.194;6.642;2022-10-28T04:39:32;16.80;99.90
28969;DHT22;16076;51.194;6.642;2022-10-28T04:41:57;16.80;99.90
28969;DHT22;16076;51.194;6.642;2022-10-28T04:44:23;16.80;99.90
28969;DHT22;16076;51.194;6.642;2022-10-28T04:46:50;16.70;99.90
28969;DHT22;16076;51.194;6.642;2022-10-28T04:49:16;16.70;99.90
28969;DHT22;16076;51.194;6.642;2022-10-28T04:51:41;16.70;99.90
28969;DHT22;16076;51.194;6.642;2022-10-28T04:54:07;16.80;99.90
28969;DHT22;16076;51.194;6.642;2022-10-28T04:56:33;16.80;99.90
28969;DHT22;16076;51.194;6.642;2022-10-28T04:58:58;17.00;99.90
28969;DHT22;16076;51.194;6.642;2022-10-28T05:01:24;16.90;99.90
28969;DHT22;16076;51.194;6.642;2022-10-28T05:03:50;16.90;99.90
28969;DHT22;16076;51.194;6.642;2022-10-28T05:06:15;17.00;99.90
28969;DHT22;16076;51.194;6.642;2022-10-28T05:08:41;17.00;99.90
28969;DHT22;16076;51.194;6.642;2022-10-28T05:11:09;17.00;99.90
28969;DHT22;16076;51.194;6.642;2022-10-28T05:13:34;17.00;99.90
28969;DHT22;16076;51.194;6.642;2022-10-28T05:16:00;17.10;99.90
28969;DHT22;16076;51.194;6.642;2022-10-28T05:18:25;17.20;99.90
28969;DHT22;16076;51.194;6.642;2022-10-28T05:20:51;17.20;99.90
28969;DHT22;16076;51.194;6.642;2022-10-28T05:23:20;17.20;99.90
28969;DHT22;16076;51.194;6.642;2022-10-28T05:25:49;17.30;99.90
28969;DHT22;16076;51.194;6.642;2022-10-28T05:28:18;17.30;99.90
28969;DHT22;16076;51.194;6.642;2022-10-28T05:30:43;17.40;99.90
28969;DHT22;16076;51.194;6.642;2022-10-28T05:33:09;17.40;99.90
28969;DHT22;16076;51.194;6.642;2022-10-28T05:35:36;17.50;99.90
28969;DHT22;16076;51.194;6.642;2022-10-28T05:38:04;17.50;99.90
28969;DHT22;16076;51.194;6.642;2022-10-28T05:40:30;17.60;99.90
28969;DHT22;16076;51.194;6.642;2022-10-28T05:43:00;17.50;99.90
28969;DHT22;16076;51.194;6.642;2022-10-28T05:45:28;17.60;99.90
28969;DHT22;16076;51.194;6.642;2022-10-28T05:47:56;17.60;99.90
28969;DHT22;16076;51.194;6.642;2022-10-28T05:50:22;17.60;99.90
28969;DHT22;16076;51.194;6.642;2022-10-28T05:52:55;17.50;99.90
28969;DHT22;16076;51.194;6.642;2022-10-28T05:55:23;17.50;99.90
28969;DHT22;16076;51.194;6.642;2022-10-28T05:57:50;17.50;99.90
28969;DHT22;16076;51.194;6.642;2022-10-28T06:00:18;17.50;99.90
28969;DHT22;16076;51.194;6.642;2022-10-28T06:02:44;17.40;99.90
28969;DHT22;16076;51.194;6.642;2022-10-28T06:05:12;17.40;99.90
28969;DHT22;16076;51.194;6.642;2022-10-28T06:07:39;17.30;99.90
28969;DHT22;16076;51.194;6.642;2022-10-28T06:10:08;17.30;99.90
28969;DHT22;16076;51.194;6.642;2022-10-28T06:12:34;17.30;99.90
28969;DHT22;16076;51.194;6.642;2022-10-28T06:15:04;17.40;99.90
28969;DHT22;16076;51.194;6.642;2022-10-28T06:17:33;17.30;99.90
28969;DHT22;16076;51.194;6.642;2022-10-28T06:19:58;17.30;99.90
28969;DHT22;16076;51.194;6.642;2022-10-28T06:22:24;17.30;99.90
28969;DHT22;16076;51.194;6.642;2022-10-28T06:24:49;17.30;99.90
28969;DHT22;16076;51.194;6.642;2022-10-28T06:27:15;17.20;99.90
28969;DHT22;16076;51.194;6.642;2022-10-28T06:29:41;17.20;99.90
28969;DHT22;16076;51.194;6.642;2022-10-28T06:32:09;17.20;99.90
28969;DHT22;16076;51.194;6.642;2022-10-28T06:34:35;17.20;99.90
28969;DHT22;16076;51.194;6.642;2022-10-28T06:37:03;17.20;99.90
28969;DHT22;16076;51.194;6.642;2022-10-28T06:39:29;17.20;99.90
28969;DHT22;16076;51.194;6.642;2022-10-28T06:41:54;17.20;99.90
28969;DHT22;16076;51.194;6.642;2022-10-28T06:44:20;17.20;99.90
28969;DHT22;16076;51.194;6.642;2022-10-28T06:46:45;17.20;99.90
28969;DHT22;16076;51.194;6.642;2022-10-28T06:49:11;17.20;99.90
28969;DHT22;16076;51.194;6.642;2022-10-28T06:51:36;17.30;99.90
28969;DHT22;16076;51.194;6.642;2022-10-28T06:54:02;17.20;99.90
28969;DHT22;16076;51.194;6.642;2022-10-28T06:56:29;17.20;99.90
28969;DHT22;16076;51.194;6.642;2022-10-28T06:58:55;17.40;99.90
28969;DHT22;16076;51.194;6.642;2022-10-28T07:01:21;17.50;99.90
28969;DHT22;16076;51.194;6.642;2022-10-28T07:03:49;17.50;99.90
28969;DHT22;16076;51.194;6.642;2022-10-28T07:06:15;17.50;99.90
28969;DHT22;16076;51.194;6.642;2022-10-28T07:08:41;17.60;99.90
28969;DHT22;16076;51.194;6.642;2022-10-28T07:11:07;17.60;99.90
28969;DHT22;16076;51.194;6.642;2022-10-28T07:13:33;17.70;99.90
28969;DHT22;16076;51.194;6.642;2022-10-28T07:15:59;17.70;99.90
28969;DHT22;16076;51.194;6.642;2022-10-28T07:18:26;17.80;99.90
28969;DHT22;16076;51.194;6.642;2022-10-28T07:20:53;17.90;99.90
28969;DHT22;16076;51.194;6.642;2022-10-28T07:23:19;17.90;99.90
28969;DHT22;16076;51.194;6.642;2022-10-28T07:25:51;18.00;99.90
28969;DHT22;16076;51.194;6.642;2022-10-28T07:28:22;18.00;99.90
28969;DHT22;16076;51.194;6.642;2022-10-28T07:30:48;18.10;99.90
28969;DHT22;16076;51.194;6.642;2022-10-28T07:33:13;18.20;99.90
28969;DHT22;16076;51.194;6.642;2022-10-28T07:35:39;18.30;99.90
28969;DHT22;16076;51.194;6.642;2022-10-28T07:38:05;18.30;99.90
28969;DHT22;16076;51.194;6.642;2022-10-28T07:40:31;18.40;99.90
28969;DHT22;16076;51.194;6.642;2022-10-28T07:42:57;18.50;99.90
28969;DHT22;16076;51.194;6.642;2022-10-28T07:45:23;18.40;99.90
28969;DHT22;16076;51.194;6.642;2022-10-28T07:47:49;18.50;99.90
28969;DHT22;16076;51.194;6.642;2022-10-28T07:50:17;18.50;99.90
28969;DHT22;16076;51.194;6.642;2022-10-28T07:52:42;18.60;99.90
28969;DHT22;16076;51.194;6.642;2022-10-28T07:55:09;18.60;99.90
28969;DHT22;16076;51.194;6.642;2022-10-28T07:57:35;18.70;99.90
28969;DHT22;16076;51.194;6.642;2022-10-28T08:00:02;18.70;99.90
28969;DHT22;16076;51.194;6.642;2022-10-28T08:02:29;18.70;99.90
28969;DHT22;16076;51.194;6.642;2022-10-28T08:04:54;18.70;99.90
28969;DHT22;16076;51.194;6.642;2022-10-28T08:07:21;18.80;99.90
28969;DHT22;16076;51.194;6.642;2022-10-28T08:09:47;18.80;99.90
28969;DHT22;16076;51.194;6.642;2022-10-28T08:12:14;18.80;99.90
28969;DHT22;16076;51.194;6.642;2022-10-28T08:14:39;18.70;99.90
28969;DHT22;16076;51.194;6.642;2022-10-28T08:17:05;18.70;99.90
28969;DHT22;16076;51.194;6.642;2022-10-28T08:19:31;18.60;99.90
28969;DHT22;16076;51.194;6.642;2022-10-28T08:21:59;18.60;99.90
28969;DHT22;16076;51.194;6.642;2022-10-28T08:24:26;18.50;99.90
28969;DHT22;16076;51.194;6.642;2022-10-28T08:26:52;18.60;99.90
28969;DHT22;16076;51.194;6.642;2022-10-28T08:29:20;18.60;99.90
28969;DHT22;16076;51.194;6.642;2022-10-28T08:31:45;18.60;99.90
28969;DHT22;16076;51.194;6.642;2022-10-28T08:34:11;18.70;99.90
28969;DHT22;16076;51.194;6.642;2022-10-28T08:36:37;18.70;99.90
28969;DHT22;16076;51.194;6.642;2022-10-28T08:39:02;18.80;99.90
28969;DHT22;16076;51.194;6.642;2022-10-28T08:41:40;18.80;99.90
28969;DHT22;16076;51.194;6.642;2022-10-28T08:49:23;19.10;99.90
28969;DHT22;16076;51.194;6.642;2022-10-28T08:54:50;19.40;99.90
28969;DHT22;16076;51.194;6.642;2022-10-28T08:57:20;19.40;99.90
28969;DHT22;16076;51.194;6.642;2022-10-28T08:59:51;19.60;99.90
28969;DHT22;16076;51.194;6.642;2022-10-28T09:02:42;19.70;99.90
28969;DHT22;16076;51.194;6.642;2022-10-28T09:05:23;19.80;99.90
28969;DHT22;16076;51.194;6.642;2022-10-28T09:07:50;19.90;99.90
28969;DHT22;16076;51.194;6.642;2022-10-28T09:10:20;20.00;99.90
28969;DHT22;16076;51.194;6.642;2022-10-28T09:15:56;20.20;99.90
28969;DHT22;16076;51.194;6.642;2022-10-28T09:21:08;20.50;99.90
28969;DHT22;16076;51.194;6.642;2022-10-28T09:23:48;20.60;99.90
28969;DHT22;16076;51.194;6.642;2022-10-28T09:31:38;20.90;99.90
28969;DHT22;16076;51.194;6.642;2022-10-28T09:34:14;20.90;99.90
28969;DHT22;16076;51.194;6.642;2022-10-28T09:37:03;21.00;99.90
28969;DHT22;16076;51.194;6.642;2022-10-28T09:39:40;21.10;99.90
28969;DHT22;16076;51.194;6.642;2022-10-28T09:42:21;21.10;99.90
28969;DHT22;16076;51.194;6.642;2022-10-28T09:44:50;21.10;99.90
28969;DHT22;16076;51.194;6.642;2022-10-28T09:47:23;21.30;99.90
28969;DHT22;16076;51.194;6.642;2022-10-28T09:49:53;21.30;99.90
28969;DHT22;16076;51.194;6.642;2022-10-28T09:52:29;21.40;99.90
28969;DHT22;16076;51.194;6.642;2022-10-28T09:54:57;21.40;99.90
28969;DHT22;16076;51.194;6.642;2022-10-28T09:57:29;21.40;99.90
28969;DHT22;16076;51.194;6.642;2022-10-28T09:59:55;21.50;99.90
28969;DHT22;16076;51.194;6.642;2022-10-28T10:02:25;21.50;99.90
28969;DHT22;16076;51.194;6.642;2022-10-28T10:04:52;21.60;99.90
28969;DHT22;16076;51.194;6.642;2022-10-28T10:07:34;21.70;99.90
28969;DHT22;16076;51.194;6.642;2022-10-28T10:10:05;21.70;99.90
28969;DHT22;16076;51.194;6.642;2022-10-28T10:12:35;21.80;99.90
28969;DHT22;16076;51.194;6.642;2022-10-28T10:15:04;21.90;99.90
28969;DHT22;16076;51.194;6.642;2022-10-28T10:17:40;22.00;99.90
28969;DHT22;16076;51.194;6.642;2022-10-28T10:20:16;22.20;99.90
28969;DHT22;16076;51.194;6.642;2022-10-28T10:22:46;22.20;99.90
28969;DHT22;16076;51.194;6.642;2022-10-28T10:30:35;22.20;99.90
28969;DHT22;16076;51.194;6.642;2022-10-28T10:33:02;22.20;99.90
28969;DHT22;16076;51.194;6.642;2022-10-28T10:35:33;22.20;99.90
28969;DHT22;16076;51.194;6.642;2022-10-28T10:38:02;22.30;99.90
28969;DHT22;16076;51.194;6.642;2022-10-28T10:40:49;22.40;99.90
28969;DHT22;16076;51.194;6.642;2022-10-28T10:46:16;22.50;99.90
28969;DHT22;16076;51.194;6.642;2022-10-28T10:48:42;22.50;99.90
28969;DHT22;16076;51.194;6.642;2022-10-28T10:51:16;22.40;99.90
28969;DHT22;16076;51.194;6.642;2022-10-28T10:53:47;22.50;99.90
28969;DHT22;16076;51.194;6.642;2022-10-28T10:56:39;22.40;99.90
28969;DHT22;16076;51.194;6.642;2022-10-28T10:59:06;22.50;99.90
28969;DHT22;16076;51.194;6.642;2022-10-28T11:01:40;22.70;99.90
28969;DHT22;16076;51.194;6.642;2022-10-28T11:04:15;22.90;99.90
28969;DHT22;16076;51.194;6.642;2022-10-28T11:06:43;22.90;99.90
28969;DHT22;16076;51.194;6.642;2022-10-28T11:11:46;23.10;99.90
28969;DHT22;16076;51.194;6.642;2022-10-28T11:16:48;23.30;99.90
28969;DHT22;16076;51.194;6.642;2022-10-28T11:29:50;23.80;99.90
28969;DHT22;16076;51.194;6.642;2022-10-28T11:38:05;23.90;99.90
28969;DHT22;16076;51.194;6.642;2022-10-28T11:40:38;23.80;99.90
28969;DHT22;16076;51.194;6.642;2022-10-28T11:43:20;23.70;99.90
28969;DHT22;16076;51.194;6.642;2022-10-28T11:45:54;23.70;99.90
28969;DHT22;16076;51.194;6.642;2022-10-28T11:48:38;23.80;99.90
28969;DHT22;16076;51.194;6.642;2022-10-28T11:56:46;24.00;99.90
28969;DHT22;16076;51.194;6.642;2022-10-28T11:59:38;24.10;99.90
28969;DHT22;16076;51.194;6.642;2022-10-28T12:13:00;24.40;99.90
28969;DHT22;16076;51.194;6.642;2022-10-28T12:18:48;24.60;99.90
28969;DHT22;16076;51.194;6.642;2022-10-28T12:22:22;24.70;99.90
28969;DHT22;16076;51.194;6.642;2022-10-28T12:24:19;24.70;99.90
28969;DHT22;16076;51.194;6.642;2022-10-28T12:26:57;24.90;99.90
28969;DHT22;16076;51.194;6.642;2022-10-28T12:29:31;24.90;99.90
28969;DHT22;16076;51.194;6.642;2022-10-28T12:32:03;25.00;99.90
28969;DHT22;16076;51.194;6.642;2022-10-28T12:34:46;25.00;99.90
28969;DHT22;16076;51.194;6.642;2022-10-28T12:37:24;25.00;99.90
28969;DHT22;16076;51.194;6.642;2022-10-28T12:40:15;25.10;99.90
28969;DHT22;16076;51.194;6.642;2022-10-28T12:43:11;25.10;99.90
28969;DHT22;16076;51.194;6.642;2022-10-28T12:45:39;25.20;99.90
28969;DHT22;16076;51.194;6.642;2022-10-28T12:48:15;25.20;99.90
28969;DHT22;16076;51.194;6.642;2022-10-28T12:50:58;25.30;99.90
28969;DHT22;16076;51.194;6.642;2022-10-28T12:56:28;25.60;99.90
28969;DHT22;16076;51.194;6.642;2022-10-28T13:01:33;25.80;99.90
28969;DHT22;16076;51.194;6.642;2022-10-28T13:04:00;26.00;99.90
28969;DHT22;16076;51.194;6.642;2022-10-28T13:28:40;26.10;99.90
28969;DHT22;16076;51.194;6.642;2022-10-28T13:31:08;26.10;99.90
28969;DHT22;16076;51.194;6.642;2022-10-28T13:33:36;26.10;99.90
28969;DHT22;16076;51.194;6.642;2022-10-28T13:38:47;26.10;99.90
28969;DHT22;16076;51.194;6.642;2022-10-28T13:41:30;26.10;99.90
28969;DHT22;16076;51.194;6.642;2022-10-28T13:49:29;25.90;99.90
28969;DHT22;16076;51.194;6.642;2022-10-28T13:57:24;25.50;99.90
28969;DHT22;16076;51.194;6.642;2022-10-28T14:00:00;25.40;99.90
28969;DHT22;16076;51.194;6.642;2022-10-28T14:04:57;25.20;99.90
28969;DHT22;16076;51.194;6.642;2022-10-28T14:07:27;25.20;99.90
28969;DHT22;16076;51.194;6.642;2022-10-28T14:10:18;25.20;99.90
28969;DHT22;16076;51.194;6.642;2022-10-28T14:12:54;25.20;99.90
28969;DHT22;16076;51.194;6.642;2022-10-28T14:15:24;25.10;99.90
28969;DHT22;16076;51.194;6.642;2022-10-28T14:18:03;25.10;99.90
28969;DHT22;16076;51.194;6.642;2022-10-28T14:20:34;25.00;99.90
28969;DHT22;16076;51.194;6.642;2022-10-28T14:49:31;23.90;99.90
28969;DHT22;16076;51.194;6.642;2022-10-28T14:52:18;23.90;99.90
28969;DHT22;16076;51.194;6.642;2022-10-28T14:54:48;23.90;99.90
28969;DHT22;16076;51.194;6.642;2022-10-28T14:57:15;23.80;99.90
28969;DHT22;16076;51.194;6.642;2022-10-28T14:59:51;23.60;99.90
28969;DHT22;16076;51.194;6.642;2022-10-28T15:02:22;23.50;99.90
28969;DHT22;16076;51.194;6.642;2022-10-28T15:05:12;23.40;99.90
28969;DHT22;16076;51.194;6.642;2022-10-28T15:07:41;23.30;99.90
28969;DHT22;16076;51.194;6.642;2022-10-28T15:12:43;23.10;99.90
28969;DHT22;16076;51.194;6.642;2022-10-28T15:15:21;23.00;99.90
28969;DHT22;16076;51.194;6.642;2022-10-28T15:17:47;22.70;99.90
28969;DHT22;16076;51.194;6.642;2022-10-28T15:22:49;22.50;99.90
28969;DHT22;16076;51.194;6.642;2022-10-28T15:25:18;22.40;99.90
28969;DHT22;16076;51.194;6.642;2022-10-28T15:27:53;22.30;99.90
28969;DHT22;16076;51.194;6.642;2022-10-28T15:30:23;22.30;99.90
28969;DHT22;16076;51.194;6.642;2022-10-28T15:32:51;22.20;99.90
28969;DHT22;16076;51.194;6.642;2022-10-28T15:37:59;22.10;99.90
28969;DHT22;16076;51.194;6.642;2022-10-28T15:40:30;22.10;99.90
28969;DHT22;16076;51.194;6.642;2022-10-28T15:45:27;21.90;99.90
28969;DHT22;16076;51.194;6.642;2022-10-28T15:47:55;21.90;99.90
28969;DHT22;16076;51.194;6.642;2022-10-28T15:50:33;21.80;99.90
28969;DHT22;16076;51.194;6.642;2022-10-28T15:53:31;21.80;99.90
28969;DHT22;16076;51.194;6.642;2022-10-28T15:56:28;21.70;99.90
28969;DHT22;16076;51.194;6.642;2022-10-28T16:04:02;21.50;99.90
28969;DHT22;16076;51.194;6.642;2022-10-28T16:06:35;21.50;99.90
28969;DHT22;16076;51.194;6.642;2022-10-28T16:11:31;21.30;99.90
28969;DHT22;16076;51.194;6.642;2022-10-28T16:14:04;21.20;99.90
28969;DHT22;16076;51.194;6.642;2022-10-28T16:16:32;21.10;99.90
28969;DHT22;16076;51.194;6.642;2022-10-28T16:21:31;20.90;99.90
28969;DHT22;16076;51.194;6.642;2022-10-28T16:23:56;20.90;99.90
28969;DHT22;16076;51.194;6.642;2022-10-28T16:26:25;20.80;99.90
28969;DHT22;16076;51.194;6.642;2022-10-28T16:28:51;20.70;99.90
28969;DHT22;16076;51.194;6.642;2022-10-28T16:31:22;20.70;99.90
28969;DHT22;16076;51.194;6.642;2022-10-28T16:33:49;20.60;99.90
28969;DHT22;16076;51.194;6.642;2022-10-28T16:36:15;20.50;99.90
28969;DHT22;16076;51.194;6.642;2022-10-28T16:38:41;20.40;99.90
28969;DHT22;16076;51.194;6.642;2022-10-28T16:41:15;20.30;99.90
28969;DHT22;16076;51.194;6.642;2022-10-28T16:43:42;20.20;99.90
28969;DHT22;16076;51.194;6.642;2022-10-28T16:46:12;20.10;99.90
28969;DHT22;16076;51.194;6.642;2022-10-28T16:48:39;20.00;99.90
28969;DHT22;16076;51.194;6.642;2022-10-28T16:51:15;19.90;99.90
28969;DHT22;16076;51.194;6.642;2022-10-28T16:53:42;19.80;99.90
28969;DHT22;16076;51.194;6.642;2022-10-28T16:56:13;19.70;99.90
28969;DHT22;16076;51.194;6.642;2022-10-28T16:58:38;19.60;99.90
28969;DHT22;16076;51.194;6.642;2022-10-28T17:01:07;19.60;99.90
28969;DHT22;16076;51.194;6.642;2022-10-28T17:03:33;19.60;99.90
28969;DHT22;16076;51.194;6.642;2022-10-28T17:05:59;19.50;99.90
28969;DHT22;16076;51.194;6.642;2022-10-28T17:08:24;19.40;99.90
28969;DHT22;16076;51.194;6.642;2022-10-28T17:10:50;19.40;99.90
28969;DHT22;16076;51.194;6.642;2022-10-28T17:13:15;19.30;99.90
28969;DHT22;16076;51.194;6.642;2022-10-28T17:15:41;19.20;99.90
28969;DHT22;16076;51.194;6.642;2022-10-28T17:18:11;19.20;99.90
28969;DHT22;16076;51.194;6.642;2022-10-28T17:20:39;19.10;99.90
28969;DHT22;16076;51.194;6.642;2022-10-28T17:23:05;19.10;99.90
28969;DHT22;16076;51.194;6.642;2022-10-28T17:25:31;19.00;99.90
28969;DHT22;16076;51.194;6.642;2022-10-28T17:27:57;18.90;99.90
28969;DHT22;16076;51.194;6.642;2022-10-28T17:30:22;18.90;99.90
28969;DHT22;16076;51.194;6.642;2022-10-28T17:32:50;18.80;99.90
28969;DHT22;16076;51.194;6.642;2022-10-28T17:35:16;18.80;99.90
28969;DHT22;16076;51.194;6.642;2022-10-28T17:37:42;18.70;99.90
28969;DHT22;16076;51.194;6.642;2022-10-28T17:40:08;18.70;99.90
28969;DHT22;16076;51.194;6.642;2022-10-28T17:42:35;18.70;99.90
28969;DHT22;16076;51.194;6.642;2022-10-28T17:45:01;18.70;99.90
28969;DHT22;16076;51.194;6.642;2022-10-28T17:47:27;18.60;99.90
28969;DHT22;16076;51.194;6.642;2022-10-28T17:49:52;18.60;99.90
28969;DHT22;16076;51.194;6.642;2022-10-28T17:52:18;18.50;99.90
28969;DHT22;16076;51.194;6.642;2022-10-28T17:54:43;18.50;99.90
28969;DHT22;16076;51.194;6.642;2022-10-28T17:57:10;18.40;99.90
28969;DHT22;16076;51.194;6.642;2022-10-28T17:59:36;18.40;99.90
28969;DHT22;16076;51.194;6.642;2022-10-28T18:02:04;18.40;99.90
28969;DHT22;16076;51.194;6.642;2022-10-28T18:04:29;18.40;99.90
28969;DHT22;16076;51.194;6.642;2022-10-28T18:06:56;18.40;99.90
28969;DHT22;16076;51.194;6.642;2022-10-28T18:09:22;18.30;99.90
28969;DHT22;16076;51.194;6.642;2022-10-28T18:11:49;18.30;99.90
28969;DHT22;16076;51.194;6.642;2022-10-28T18:14:16;18.30;99.90
28969;DHT22;16076;51.194;6.642;2022-10-28T18:16:42;18.40;99.90
28969;DHT22;16076;51.194;6.642;2022-10-28T18:19:10;18.40;99.90
28969;DHT22;16076;51.194;6.642;2022-10-28T18:21:36;18.40;99.90
28969;DHT22;16076;51.194;6.642;2022-10-28T18:24:05;18.40;99.90
28969;DHT22;16076;51.194;6.642;2022-10-28T18:26:33;18.40;99.90
28969;DHT22;16076;51.194;6.642;2022-10-28T18:28:59;18.40;99.90
28969;DHT22;16076;51.194;6.642;2022-10-28T18:31:28;18.40;99.90
28969;DHT22;16076;51.194;6.642;2022-10-28T18:33:54;18.40;99.90
28969;DHT22;16076;51.194;6.642;2022-10-28T18:36:22;18.30;99.90
28969;DHT22;16076;51.194;6.642;2022-10-28T18:38:48;18.30;99.90
28969;DHT22;16076;51.194;6.642;2022-10-28T18:41:19;18.30;99.90
28969;DHT22;16076;51.194;6.642;2022-10-28T18:43:45;18.30;99.90
28969;DHT22;16076;51.194;6.642;2022-10-28T18:46:12;18.30;99.90
28969;DHT22;16076;51.194;6.642;2022-10-28T18:48:38;18.30;99.90
28969;DHT22;16076;51.194;6.642;2022-10-28T18:51:06;18.30;99.90
28969;DHT22;16076;51.194;6.642;2022-10-28T18:53:35;18.30;99.90
28969;DHT22;16076;51.194;6.642;2022-10-28T18:56:02;18.30;99.90
28969;DHT22;16076;51.194;6.642;2022-10-28T18:58:29;18.30;99.90
28969;DHT22;16076;51.194;6.642;2022-10-28T19:01:06;18.30;99.90
28969;DHT22;16076;51.194;6.642;2022-10-28T19:03:31;18.30;99.90
28969;DHT22;16076;51.194;6.642;2022-10-28T19:06:08;18.30;99.90